createdAt,value
2019-05-26T00:00:25.914Z,5.37
2019-05-26T00:01:02.011Z,5.60
2019-05-26T00:01:37.055Z,5.87
2019-05-26T00:02:12.715Z,5.87
2019-05-26T00:02:48.962Z,5.53
2019-05-26T00:03:24.256Z,5.70
2019-05-26T00:03:59.866Z,5.90
2019-05-26T00:04:36.559Z,5.72
2019-05-26T00:05:11.635Z,5.85
2019-05-26T00:05:47.530Z,5.47
2019-05-26T00:06:23.138Z,5.97
2019-05-26T00:06:58.205Z,5.72
2019-05-26T00:07:33.819Z,6.30
2019-05-26T00:08:09.759Z,5.85
2019-05-26T00:08:45.116Z,5.58
2019-05-26T00:09:20.756Z,5.97
2019-05-26T00:09:56.433Z,5.17
2019-05-26T00:10:31.486Z,5.72
2019-05-26T00:11:07.115Z,5.90
2019-05-26T00:11:42.719Z,6.22
2019-05-26T00:12:17.763Z,5.75
2019-05-26T00:12:53.437Z,5.72
2019-05-26T00:13:29.622Z,5.97
2019-05-26T00:14:04.754Z,6.03
2019-05-26T00:14:40.421Z,5.70
2019-05-26T00:15:16.028Z,6.30
2019-05-26T00:15:52.396Z,6.08
2019-05-26T00:16:28.015Z,5.60
2019-05-26T00:17:04.955Z,5.92
2019-05-26T00:17:40.040Z,5.58
2019-05-26T00:18:16.181Z,6.00
2019-05-26T00:18:52.106Z,5.65
2019-05-26T00:19:27.182Z,5.83
2019-05-26T00:20:02.867Z,5.97
2019-05-26T00:20:38.494Z,5.65
2019-05-26T00:21:13.525Z,5.85
2019-05-26T00:21:49.177Z,5.92
2019-05-26T00:22:24.870Z,5.55
2019-05-26T00:22:59.901Z,5.45
2019-05-26T00:23:35.616Z,5.60
2019-05-26T00:24:11.398Z,6.00
2019-05-26T00:24:46.439Z,6.00
2019-05-26T00:25:22.065Z,5.92
2019-05-26T00:25:57.754Z,5.60
2019-05-26T00:26:32.878Z,5.65
2019-05-26T00:27:08.643Z,5.90
2019-05-26T00:27:44.617Z,5.40
2019-05-26T00:28:19.730Z,5.53
2019-05-26T00:28:55.351Z,5.75
2019-05-26T00:29:31.327Z,5.40
2019-05-26T00:30:06.454Z,5.47
2019-05-26T00:30:42.073Z,5.60
2019-05-26T00:31:17.790Z,5.55
2019-05-26T00:31:52.845Z,5.65
2019-05-26T00:32:28.579Z,5.90
2019-05-26T00:33:04.834Z,6.00
2019-05-26T00:33:39.879Z,6.20
2019-05-26T00:34:15.501Z,5.70
2019-05-26T00:34:51.110Z,5.50
2019-05-26T00:35:26.223Z,5.70
2019-05-26T00:36:01.971Z,5.62
2019-05-26T00:36:37.582Z,5.60
2019-05-26T00:37:12.934Z,5.15
2019-05-26T00:37:50.528Z,5.40
2019-05-26T00:38:26.590Z,6.10
2019-05-26T00:39:01.887Z,5.87
2019-05-26T00:39:38.167Z,5.92
2019-05-26T00:40:13.790Z,5.50
2019-05-26T00:40:48.822Z,5.70
2019-05-26T00:41:24.481Z,5.90
2019-05-26T00:42:00.108Z,5.70
2019-05-26T00:42:35.146Z,6.25
2019-05-26T00:43:10.764Z,5.70
2019-05-26T00:43:46.367Z,5.55
2019-05-26T00:44:21.407Z,5.50
2019-05-26T00:44:57.412Z,5.47
2019-05-26T00:45:33.131Z,5.65
2019-05-26T00:46:08.187Z,5.53
2019-05-26T00:46:43.885Z,5.37
2019-05-26T00:47:19.579Z,5.28
2019-05-26T00:47:55.083Z,5.37
2019-05-26T00:48:30.968Z,5.67
2019-05-26T00:49:06.644Z,5.58
2019-05-26T00:49:41.700Z,5.15
2019-05-26T00:50:17.315Z,5.42
2019-05-26T00:50:52.911Z,5.45
2019-05-26T00:51:27.986Z,5.50
2019-05-26T00:52:03.712Z,5.47
2019-05-26T00:52:39.360Z,5.42
2019-05-26T00:53:14.718Z,5.47
2019-05-26T00:53:51.283Z,5.75
2019-05-26T00:54:26.894Z,5.33
2019-05-26T00:55:02.045Z,5.22
2019-05-26T00:55:38.295Z,5.30
2019-05-26T00:56:13.891Z,5.05
2019-05-26T00:56:49.266Z,5.00
2019-05-26T00:57:24.918Z,5.55
2019-05-26T00:58:00.946Z,5.67
2019-05-26T00:58:35.982Z,5.50
2019-05-26T00:59:11.678Z,4.92
2019-05-26T00:59:47.580Z,5.45
2019-05-26T01:00:38.335Z,5.60
2019-05-26T01:01:14.027Z,5.12
2019-05-26T01:01:49.659Z,4.80
2019-05-26T01:02:25.227Z,5.70
2019-05-26T01:03:00.899Z,5.97
2019-05-26T01:03:36.566Z,6.22
2019-05-26T01:04:12.052Z,5.92
2019-05-26T01:04:48.006Z,5.87
2019-05-26T01:05:25.283Z,5.45
2019-05-26T01:06:00.337Z,5.20
2019-05-26T01:06:36.178Z,5.78
2019-05-26T01:07:11.791Z,5.60
2019-05-26T01:07:46.842Z,5.37
2019-05-26T01:08:22.479Z,5.28
2019-05-26T01:08:58.092Z,5.62
2019-05-26T01:09:33.169Z,5.70
2019-05-26T01:10:09.001Z,5.37
2019-05-26T01:10:44.921Z,5.25
2019-05-26T01:11:20.043Z,5.20
2019-05-26T01:11:55.706Z,5.45
2019-05-26T01:12:31.328Z,5.85
2019-05-26T01:13:06.462Z,5.40
2019-05-26T01:13:42.078Z,5.30
2019-05-26T01:14:17.782Z,5.22
2019-05-26T01:14:52.817Z,5.78
2019-05-26T01:15:28.518Z,5.10
2019-05-26T01:16:04.255Z,5.00
2019-05-26T01:16:39.327Z,5.12
2019-05-26T01:17:16.023Z,5.10
2019-05-26T01:17:51.638Z,5.37
2019-05-26T01:18:26.707Z,5.28
2019-05-26T01:19:02.341Z,4.95
2019-05-26T01:19:39.607Z,5.35
2019-05-26T01:20:14.666Z,5.58
2019-05-26T01:20:50.275Z,5.22
2019-05-26T01:21:26.269Z,4.72
2019-05-26T01:22:01.351Z,4.92
2019-05-26T01:22:37.983Z,5.05
2019-05-26T01:23:14.214Z,5.12
2019-05-26T01:23:49.282Z,5.22
2019-05-26T01:24:24.891Z,5.45
2019-05-26T01:25:00.539Z,5.00
2019-05-26T01:25:35.955Z,4.90
2019-05-26T01:26:11.585Z,5.05
2019-05-26T01:26:47.186Z,4.92
2019-05-26T01:27:22.240Z,5.00
2019-05-26T01:27:58.872Z,4.97
2019-05-26T01:28:34.535Z,5.20
2019-05-26T01:29:09.567Z,5.20
2019-05-26T01:29:45.200Z,5.42
2019-05-26T01:30:22.579Z,5.00
2019-05-26T01:30:57.621Z,5.00
2019-05-26T01:31:33.236Z,4.83
2019-05-26T01:32:09.176Z,4.92
2019-05-26T01:32:44.215Z,4.70
2019-05-26T01:33:19.834Z,4.83
2019-05-26T01:33:55.742Z,4.87
2019-05-26T01:34:31.312Z,5.00
2019-05-26T01:35:07.931Z,4.70
2019-05-26T01:35:43.867Z,5.03
2019-05-26T01:36:18.898Z,5.60
2019-05-26T01:36:54.815Z,5.15
2019-05-26T01:37:30.470Z,5.00
2019-05-26T01:38:20.612Z,4.97
2019-05-26T01:38:42.891Z,5.08
2019-05-26T01:39:19.582Z,5.08
2019-05-26T01:39:54.961Z,4.87
2019-05-26T01:40:37.842Z,4.95
2019-05-26T01:41:14.430Z,4.90
2019-05-26T01:41:49.739Z,4.62
2019-05-26T01:42:25.395Z,5.00
2019-05-26T01:43:01.302Z,4.80
2019-05-26T01:43:36.344Z,5.33
2019-05-26T01:44:12.119Z,5.10
2019-05-26T01:44:48.008Z,5.03
2019-05-26T01:45:23.083Z,4.97
2019-05-26T01:45:58.798Z,5.35
2019-05-26T01:46:34.660Z,4.78
2019-05-26T01:47:09.695Z,4.85
2019-05-26T01:47:45.321Z,5.15
2019-05-26T01:48:21.271Z,4.97
2019-05-26T01:48:56.314Z,4.72
2019-05-26T01:49:31.932Z,4.78
2019-05-26T01:50:07.783Z,5.05
2019-05-26T01:50:43.095Z,4.47
2019-05-26T01:51:19.063Z,4.90
2019-05-26T01:51:54.666Z,4.40
2019-05-26T01:52:30.089Z,4.78
2019-05-26T01:53:07.516Z,5.08
2019-05-26T01:53:44.086Z,5.33
2019-05-26T01:54:19.477Z,4.90
2019-05-26T01:54:55.403Z,5.42
2019-05-26T01:55:31.007Z,4.92
2019-05-26T01:56:06.082Z,4.83
2019-05-26T01:56:41.982Z,4.83
2019-05-26T01:57:17.590Z,5.30
2019-05-26T01:57:52.643Z,5.20
2019-05-26T01:58:28.246Z,5.05
2019-05-26T01:59:04.033Z,5.62
2019-05-26T01:59:39.058Z,6.10
2019-05-26T02:00:14.681Z,5.83
2019-05-26T02:00:50.303Z,7.40
2019-05-26T02:01:25.335Z,6.20
2019-05-26T02:02:00.960Z,6.65
2019-05-26T02:02:36.586Z,7.97
2019-05-26T02:03:11.914Z,6.95
2019-05-26T02:03:47.530Z,7.53
2019-05-26T02:04:23.207Z,7.10
2019-05-26T02:04:58.247Z,7.10
2019-05-26T02:05:33.875Z,6.95
2019-05-26T02:06:09.491Z,7.25
2019-05-26T02:06:44.521Z,7.30
2019-05-26T02:07:20.136Z,7.37
2019-05-26T02:07:56.088Z,7.37
2019-05-26T02:08:39.297Z,7.62
2019-05-26T02:09:08.923Z,7.87
2019-05-26T02:09:44.884Z,7.35
2019-05-26T02:10:20.603Z,7.65
2019-05-26T02:10:56.227Z,7.90
2019-05-26T02:11:32.148Z,7.80
2019-05-26T02:12:07.738Z,8.50
2019-05-26T02:12:43.378Z,8.08
2019-05-26T02:13:18.990Z,8.30
2019-05-26T02:13:54.026Z,8.80
2019-05-26T02:14:29.668Z,9.03
2019-05-26T02:15:05.391Z,9.33
2019-05-26T02:15:40.709Z,8.63
2019-05-26T02:16:16.351Z,8.68
2019-05-26T02:16:51.970Z,9.00
2019-05-26T02:17:27.013Z,8.68
2019-05-26T02:18:02.810Z,8.20
2019-05-26T02:18:38.427Z,8.75
2019-05-26T02:19:13.462Z,8.55
2019-05-26T02:19:49.082Z,8.90
2019-05-26T02:20:24.698Z,9.05
2019-05-26T02:20:59.738Z,8.00
2019-05-26T02:21:35.361Z,9.73
2019-05-26T02:22:10.985Z,9.10
2019-05-26T02:22:46.034Z,9.90
2019-05-26T02:23:21.651Z,9.55
2019-05-26T02:23:57.279Z,9.43
2019-05-26T02:24:32.598Z,9.78
2019-05-26T02:25:08.310Z,9.13
2019-05-26T02:25:43.939Z,8.78
2019-05-26T02:26:18.980Z,9.10
2019-05-26T02:26:54.590Z,9.75
2019-05-26T02:27:30.541Z,9.35
2019-05-26T02:28:05.831Z,9.75
2019-05-26T02:28:41.452Z,9.18
2019-05-26T02:29:17.416Z,9.68
2019-05-26T02:29:52.451Z,9.80
2019-05-26T02:30:28.364Z,9.05
2019-05-26T02:31:05.015Z,9.70
2019-05-26T02:31:40.047Z,10.08
2019-05-26T02:32:16.020Z,10.38
2019-05-26T02:32:51.954Z,10.13
2019-05-26T02:33:27.065Z,10.40
2019-05-26T02:34:02.868Z,10.15
2019-05-26T02:34:38.508Z,10.55
2019-05-26T02:35:13.727Z,10.32
2019-05-26T02:35:49.367Z,10.50
2019-05-26T02:36:25.255Z,10.35
2019-05-26T02:37:00.619Z,11.18
2019-05-26T02:37:36.718Z,10.85
2019-05-26T02:38:12.771Z,10.98
2019-05-26T02:39:00.984Z,11.33
2019-05-26T02:39:25.144Z,10.15
2019-05-26T02:40:01.281Z,10.32
2019-05-26T02:40:36.372Z,10.70
2019-05-26T02:41:12.239Z,10.82
2019-05-26T02:41:47.871Z,11.43
2019-05-26T02:42:22.897Z,11.15
2019-05-26T02:42:58.876Z,11.60
2019-05-26T02:43:34.505Z,11.48
2019-05-26T02:44:09.697Z,11.10
2019-05-26T02:44:45.315Z,10.88
2019-05-26T02:45:21.363Z,10.80
2019-05-26T02:45:56.460Z,12.10
2019-05-26T02:46:32.091Z,11.38
2019-05-26T02:47:07.711Z,11.43
2019-05-26T02:47:43.090Z,11.30
2019-05-26T02:48:18.994Z,12.53
2019-05-26T02:48:54.640Z,12.47
2019-05-26T02:49:30.374Z,11.68
2019-05-26T02:50:06.362Z,12.23
2019-05-26T02:50:41.967Z,12.05
2019-05-26T02:51:17.007Z,12.35
2019-05-26T02:51:52.635Z,12.50
2019-05-26T02:52:28.243Z,11.90
2019-05-26T02:53:03.920Z,11.53
2019-05-26T02:53:40.132Z,12.15
2019-05-26T02:54:15.998Z,11.60
2019-05-26T02:54:51.279Z,12.30
2019-05-26T02:55:27.096Z,12.75
2019-05-26T02:56:02.962Z,12.75
2019-05-26T02:56:37.998Z,13.20
2019-05-26T02:57:13.614Z,13.35
2019-05-26T02:57:49.574Z,13.75
2019-05-26T02:58:24.616Z,12.85
2019-05-26T02:59:00.732Z,12.68
2019-05-26T02:59:36.496Z,13.50
2019-05-26T03:00:11.694Z,13.48
2019-05-26T03:00:47.599Z,13.18
2019-05-26T03:01:24.016Z,15.40
2019-05-26T03:02:03.964Z,14.83
2019-05-26T03:02:36.486Z,14.13
2019-05-26T03:03:12.989Z,14.23
2019-05-26T03:03:49.075Z,14.95
2019-05-26T03:04:25.037Z,14.20
2019-05-26T03:05:00.671Z,14.78
2019-05-26T03:05:36.032Z,14.43
2019-05-26T03:06:11.736Z,14.68
2019-05-26T03:06:47.545Z,14.60
2019-05-26T03:07:22.744Z,14.60
2019-05-26T03:07:58.388Z,15.05
2019-05-26T03:08:34.372Z,15.15
2019-05-26T03:09:21.693Z,15.60
2019-05-26T03:09:47.036Z,15.83
2019-05-26T03:10:22.908Z,15.35
2019-05-26T03:10:58.650Z,14.78
2019-05-26T03:11:34.272Z,15.60
2019-05-26T03:12:10.856Z,14.85
2019-05-26T03:12:46.278Z,15.32
2019-05-26T03:13:21.967Z,15.65
2019-05-26T03:13:59.533Z,15.90
2019-05-26T03:14:35.159Z,14.98
2019-05-26T03:15:10.829Z,15.15
2019-05-26T03:15:46.768Z,15.15
2019-05-26T03:16:23.201Z,15.32
2019-05-26T03:16:58.992Z,15.13
2019-05-26T03:17:35.147Z,15.15
2019-05-26T03:18:10.188Z,15.48
2019-05-26T03:18:46.098Z,15.25
2019-05-26T03:19:21.727Z,15.53
2019-05-26T03:19:56.776Z,15.83
2019-05-26T03:20:32.411Z,15.38
2019-05-26T03:21:08.071Z,15.23
2019-05-26T03:21:43.127Z,14.83
2019-05-26T03:22:19.996Z,15.30
2019-05-26T03:22:55.629Z,15.30
2019-05-26T03:23:32.047Z,14.78
2019-05-26T03:24:07.702Z,15.28
2019-05-26T03:24:43.549Z,15.38
2019-05-26T03:25:18.598Z,15.93
2019-05-26T03:25:54.276Z,15.93
2019-05-26T03:26:30.840Z,15.68
2019-05-26T03:27:06.952Z,16.12
2019-05-26T03:27:42.573Z,16.62
2019-05-26T03:28:18.316Z,15.78
2019-05-26T03:28:53.619Z,16.15
2019-05-26T03:29:29.275Z,16.40
2019-05-26T03:30:05.526Z,16.77
2019-05-26T03:30:40.671Z,15.80
2019-05-26T03:31:16.751Z,16.00
2019-05-26T03:31:52.415Z,15.58
2019-05-26T03:32:27.894Z,16.20
2019-05-26T03:33:03.648Z,16.27
2019-05-26T03:33:39.516Z,16.55
2019-05-26T03:34:14.584Z,16.60
2019-05-26T03:34:50.224Z,16.85
2019-05-26T03:35:25.929Z,17.45
2019-05-26T03:36:00.967Z,16.62
2019-05-26T03:36:36.599Z,18.23
2019-05-26T03:37:12.227Z,17.75
2019-05-26T03:37:47.278Z,16.65
2019-05-26T03:38:23.310Z,16.97
2019-05-26T03:38:58.962Z,16.82
2019-05-26T03:39:44.565Z,17.10
2019-05-26T03:40:11.405Z,18.32
2019-05-26T03:40:47.307Z,17.73
2019-05-26T03:41:22.737Z,17.25
2019-05-26T03:41:58.372Z,16.93
2019-05-26T03:42:33.987Z,17.73
2019-05-26T03:43:09.411Z,17.42
2019-05-26T03:43:45.037Z,16.87
2019-05-26T03:44:20.734Z,18.57
2019-05-26T03:44:55.786Z,18.85
2019-05-26T03:46:06.462Z,17.48
2019-05-26T03:46:41.526Z,18.30
2019-05-26T03:47:17.437Z,17.95
2019-05-26T03:47:53.095Z,17.50
2019-05-26T03:48:28.139Z,17.42
2019-05-26T03:49:04.038Z,18.80
2019-05-26T03:49:39.727Z,18.45
2019-05-26T03:50:15.955Z,17.73
2019-05-26T03:50:51.903Z,19.42
2019-05-26T03:51:27.533Z,18.15
2019-05-26T03:52:02.962Z,17.98
2019-05-26T03:52:38.862Z,19.23
2019-05-26T03:53:14.584Z,18.00
2019-05-26T03:53:49.705Z,17.70
2019-05-26T03:54:25.351Z,19.87
2019-05-26T03:55:01.111Z,19.50
2019-05-26T03:55:36.216Z,18.07
2019-05-26T03:56:12.133Z,17.00
2019-05-26T03:56:47.933Z,19.00
2019-05-26T03:57:22.979Z,17.85
2019-05-26T03:57:58.610Z,18.48
2019-05-26T03:58:34.859Z,18.57
2019-05-26T03:59:10.009Z,18.57
2019-05-26T03:59:45.655Z,18.50
2019-05-26T04:00:21.330Z,17.55
2019-05-26T04:00:56.396Z,18.02
2019-05-26T04:01:32.160Z,18.12
2019-05-26T04:02:07.804Z,19.60
2019-05-26T04:02:43.142Z,18.77
2019-05-26T04:03:18.784Z,17.92
2019-05-26T04:04:04.186Z,20.23
2019-05-26T04:04:39.218Z,19.90
2019-05-26T04:05:14.935Z,19.48
2019-05-26T04:05:50.567Z,20.92
2019-05-26T04:06:25.627Z,19.12
2019-05-26T04:07:01.270Z,18.35
2019-05-26T04:07:37.162Z,20.75
2019-05-26T04:08:12.211Z,20.02
2019-05-26T04:08:48.085Z,18.98
2019-05-26T04:09:23.724Z,18.80
2019-05-26T04:10:05.637Z,19.15
2019-05-26T04:10:36.507Z,20.35
2019-05-26T04:11:12.147Z,20.48
2019-05-26T04:11:47.420Z,20.57
2019-05-26T04:12:23.295Z,19.77
2019-05-26T04:12:58.921Z,20.17
2019-05-26T04:13:33.969Z,18.77
2019-05-26T04:14:09.626Z,19.42
2019-05-26T04:14:45.244Z,20.02
2019-05-26T04:15:20.307Z,19.73
2019-05-26T04:15:56.272Z,19.10
2019-05-26T04:16:31.907Z,20.20
2019-05-26T04:17:07.090Z,20.55
2019-05-26T04:17:42.713Z,20.62
2019-05-26T04:18:18.411Z,20.00
2019-05-26T04:18:53.499Z,20.80
2019-05-26T04:19:29.135Z,19.60
2019-05-26T04:20:04.936Z,21.77
2019-05-26T04:20:40.215Z,20.40
2019-05-26T04:21:16.928Z,20.90
2019-05-26T04:21:52.882Z,20.45
2019-05-26T04:22:27.923Z,20.45
2019-05-26T04:23:03.924Z,21.07
2019-05-26T04:23:39.561Z,21.10
2019-05-26T04:24:14.599Z,21.52
2019-05-26T04:24:50.243Z,22.60
2019-05-26T04:25:25.876Z,20.97
2019-05-26T04:26:00.999Z,23.62
2019-05-26T04:26:36.652Z,21.57
2019-05-26T04:27:12.808Z,21.60
2019-05-26T04:27:47.873Z,21.73
2019-05-26T04:28:23.494Z,22.17
2019-05-26T04:28:59.144Z,22.77
2019-05-26T04:29:34.171Z,22.37
2019-05-26T04:30:09.793Z,22.02
2019-05-26T04:30:45.426Z,21.35
2019-05-26T04:31:20.463Z,22.00
2019-05-26T04:31:56.088Z,22.17
2019-05-26T04:32:31.717Z,23.70
2019-05-26T04:33:06.752Z,23.80
2019-05-26T04:33:42.422Z,24.18
2019-05-26T04:34:18.110Z,22.87
2019-05-26T04:34:53.147Z,22.98
2019-05-26T04:35:28.791Z,24.27
2019-05-26T04:36:04.772Z,23.52
2019-05-26T04:36:39.810Z,23.87
2019-05-26T04:37:15.439Z,24.18
2019-05-26T04:37:51.063Z,23.60
2019-05-26T04:38:26.099Z,23.60
2019-05-26T04:39:02.034Z,24.05
2019-05-26T04:39:38.925Z,24.60
2019-05-26T04:40:26.510Z,24.20
2019-05-26T04:40:51.612Z,25.40
2019-05-26T04:41:27.232Z,25.68
2019-05-26T04:42:02.341Z,26.10
2019-05-26T04:42:37.962Z,25.27
2019-05-26T04:43:15.133Z,24.00
2019-05-26T04:43:50.628Z,24.20
2019-05-26T04:44:26.249Z,25.62
2019-05-26T04:45:02.170Z,25.27
2019-05-26T04:45:37.291Z,26.00
2019-05-26T04:46:12.940Z,25.08
2019-05-26T04:46:48.538Z,26.97
2019-05-26T04:47:23.692Z,25.77
2019-05-26T04:47:59.350Z,24.65
2019-05-26T04:48:34.971Z,25.50
2019-05-26T04:49:10.007Z,25.62
2019-05-26T04:49:45.645Z,25.20
2019-05-26T04:50:22.362Z,24.90
2019-05-26T04:50:57.395Z,26.12
2019-05-26T04:51:33.370Z,24.23
2019-05-26T04:52:09.053Z,26.05
2019-05-26T04:53:04.091Z,25.27
2019-05-26T04:53:21.420Z,26.60
2019-05-26T04:53:57.677Z,25.48
2019-05-26T04:54:32.961Z,25.15
2019-05-26T04:55:08.587Z,25.35
2019-05-26T04:55:44.444Z,25.23
2019-05-26T04:56:19.476Z,26.62
2019-05-26T04:56:55.119Z,25.95
2019-05-26T04:57:30.765Z,25.43
2019-05-26T04:58:05.802Z,26.42
2019-05-26T04:58:41.436Z,27.25
2019-05-26T04:59:17.482Z,26.62
2019-05-26T04:59:52.592Z,27.32
2019-05-26T05:00:28.270Z,27.35
2019-05-26T05:01:04.095Z,27.82
2019-05-26T05:01:39.413Z,26.52
2019-05-26T05:02:15.074Z,26.75
2019-05-26T05:02:50.721Z,26.25
2019-05-26T05:03:25.756Z,27.87
2019-05-26T05:04:01.386Z,27.10
2019-05-26T05:04:37.090Z,25.97
2019-05-26T05:05:12.412Z,27.75
2019-05-26T05:05:48.304Z,28.87
2019-05-26T05:06:24.011Z,28.07
2019-05-26T05:06:59.439Z,27.93
2019-05-26T05:07:35.063Z,28.35
2019-05-26T05:08:10.679Z,28.62
2019-05-26T05:08:46.019Z,28.35
2019-05-26T05:09:21.917Z,29.63
2019-05-26T05:09:57.555Z,28.67
2019-05-26T05:10:41.934Z,26.70
2019-05-26T05:11:10.199Z,29.07
2019-05-26T05:11:46.113Z,28.73
2019-05-26T05:12:21.147Z,28.65
2019-05-26T05:12:56.838Z,28.70
2019-05-26T05:13:32.459Z,30.05
2019-05-26T05:14:07.583Z,29.92
2019-05-26T05:14:43.207Z,30.32
2019-05-26T05:15:18.847Z,31.05
2019-05-26T05:15:54.154Z,30.50
2019-05-26T05:16:29.791Z,30.45
2019-05-26T05:17:05.433Z,30.88
2019-05-26T05:17:40.758Z,30.00
2019-05-26T05:18:16.373Z,31.15
2019-05-26T05:18:51.998Z,32.40
2019-05-26T05:19:27.035Z,30.45
2019-05-26T05:20:02.695Z,29.70
2019-05-26T05:20:38.383Z,30.10
2019-05-26T05:21:13.418Z,31.07
2019-05-26T05:21:49.375Z,32.13
2019-05-26T05:22:25.076Z,31.15
2019-05-26T05:23:00.121Z,32.28
2019-05-26T05:23:35.777Z,32.40
2019-05-26T05:24:11.466Z,32.40
2019-05-26T05:24:46.871Z,33.30
2019-05-26T05:25:22.515Z,34.50
2019-05-26T05:25:59.414Z,33.58
2019-05-26T05:26:34.455Z,31.93
2019-05-26T05:27:10.328Z,30.52
2019-05-26T05:27:46.384Z,33.20
2019-05-26T05:28:22.115Z,32.40
2019-05-26T05:28:57.775Z,32.85
2019-05-26T05:29:33.650Z,33.98
2019-05-26T05:30:09.007Z,34.88
2019-05-26T05:30:44.956Z,33.70
2019-05-26T05:31:21.275Z,34.80
2019-05-26T05:31:56.648Z,33.42
2019-05-26T05:32:33.735Z,33.92
2019-05-26T05:33:12.321Z,33.98
2019-05-26T05:33:47.371Z,33.50
2019-05-26T05:34:23.232Z,32.93
2019-05-26T05:34:58.854Z,33.40
2019-05-26T05:35:33.943Z,33.85
2019-05-26T05:36:09.839Z,33.45
2019-05-26T05:36:45.468Z,34.13
2019-05-26T05:37:20.782Z,35.20
2019-05-26T05:37:56.391Z,36.55
2019-05-26T05:38:32.004Z,34.85
2019-05-26T05:39:08.202Z,36.90
2019-05-26T05:39:44.163Z,36.10
2019-05-26T05:40:20.460Z,37.38
2019-05-26T05:40:59.915Z,36.98
2019-05-26T05:41:33.430Z,36.40
2019-05-26T05:42:09.064Z,35.83
2019-05-26T05:42:44.586Z,37.08
2019-05-26T05:43:21.386Z,38.65
2019-05-26T05:43:57.651Z,37.03
2019-05-26T05:44:32.693Z,38.02
2019-05-26T05:45:08.449Z,37.75
2019-05-26T05:45:44.679Z,37.03
2019-05-26T05:46:20.639Z,37.78
2019-05-26T05:46:56.282Z,37.93
2019-05-26T05:47:31.920Z,38.45
2019-05-26T05:48:07.053Z,37.78
2019-05-26T05:48:42.771Z,38.70
2019-05-26T05:49:18.414Z,36.73
2019-05-26T05:49:53.467Z,37.55
2019-05-26T05:50:29.087Z,38.00
2019-05-26T05:51:04.966Z,38.50
2019-05-26T05:51:40.071Z,40.00
2019-05-26T05:52:15.696Z,38.25
2019-05-26T05:52:51.328Z,37.70
2019-05-26T05:53:26.505Z,38.83
2019-05-26T05:54:02.463Z,38.05
2019-05-26T05:54:38.133Z,39.03
2019-05-26T05:55:13.220Z,39.10
2019-05-26T05:55:48.859Z,39.33
2019-05-26T05:56:24.479Z,39.30
2019-05-26T05:56:59.520Z,38.73
2019-05-26T05:57:35.147Z,38.28
2019-05-26T05:58:10.783Z,38.95
2019-05-26T05:58:45.898Z,39.53
2019-05-26T05:59:21.527Z,38.45
2019-05-26T05:59:57.140Z,37.58
2019-05-26T06:00:32.172Z,38.25
2019-05-26T06:01:07.786Z,38.85
2019-05-26T06:01:43.443Z,39.55
2019-05-26T06:02:18.494Z,38.70
2019-05-26T06:02:54.102Z,38.75
2019-05-26T06:03:29.722Z,39.23
2019-05-26T06:04:05.164Z,40.20
2019-05-26T06:04:40.792Z,39.85
2019-05-26T06:05:16.700Z,37.90
2019-05-26T06:05:51.779Z,40.10
2019-05-26T06:06:27.636Z,37.08
2019-05-26T06:07:04.287Z,39.20
2019-05-26T06:07:39.331Z,38.20
2019-05-26T06:08:14.955Z,39.63
2019-05-26T06:08:50.648Z,38.60
2019-05-26T06:09:26.092Z,38.92
2019-05-26T06:10:01.771Z,38.85
2019-05-26T06:10:37.696Z,39.42
2019-05-26T06:11:16.364Z,39.23
2019-05-26T06:11:53.274Z,37.53
2019-05-26T06:12:29.148Z,38.17
2019-05-26T06:13:04.615Z,37.17
2019-05-26T06:13:40.610Z,36.70
2019-05-26T06:14:16.579Z,36.80
2019-05-26T06:14:51.626Z,36.00
2019-05-26T06:15:27.261Z,36.33
2019-05-26T06:16:02.960Z,35.65
2019-05-26T06:16:38.003Z,37.35
2019-05-26T06:17:13.637Z,36.30
2019-05-26T06:17:49.742Z,35.60
2019-05-26T06:18:25.298Z,36.75
2019-05-26T06:19:00.919Z,34.53
2019-05-26T06:19:37.499Z,36.28
2019-05-26T06:20:12.526Z,33.98
2019-05-26T06:20:48.158Z,35.70
2019-05-26T06:21:24.330Z,36.40
2019-05-26T06:21:59.376Z,35.00
2019-05-26T06:22:35.243Z,34.50
2019-05-26T06:23:10.863Z,34.58
2019-05-26T06:23:45.902Z,34.53
2019-05-26T06:24:21.546Z,34.65
2019-05-26T06:24:57.165Z,33.58
2019-05-26T06:25:32.304Z,33.23
2019-05-26T06:26:07.947Z,33.85
2019-05-26T06:26:43.597Z,33.23
2019-05-26T06:27:19.267Z,33.50
2019-05-26T06:27:55.142Z,33.30
2019-05-26T06:28:30.774Z,32.10
2019-05-26T06:29:05.802Z,33.08
2019-05-26T06:29:57.611Z,31.85
2019-05-26T06:30:19.170Z,32.55
2019-05-26T06:30:54.494Z,33.48
2019-05-26T06:31:30.131Z,32.00
2019-05-26T06:32:06.083Z,32.40
2019-05-26T06:32:41.283Z,30.75
2019-05-26T06:33:16.938Z,31.05
2019-05-26T06:33:52.827Z,30.88
2019-05-26T06:34:27.884Z,31.42
2019-05-26T06:35:03.588Z,31.45
2019-05-26T06:35:39.237Z,31.60
2019-05-26T06:36:14.294Z,30.82
2019-05-26T06:36:49.934Z,30.27
2019-05-26T06:37:25.563Z,31.07
2019-05-26T06:38:00.975Z,30.65
2019-05-26T06:38:36.602Z,29.40
2019-05-26T06:39:12.226Z,29.20
2019-05-26T06:39:47.818Z,29.82
2019-05-26T06:40:23.703Z,30.30
2019-05-26T06:40:59.346Z,30.88
2019-05-26T06:41:34.390Z,30.23
2019-05-26T06:42:13.149Z,29.02
2019-05-26T06:42:48.687Z,29.87
2019-05-26T06:43:23.977Z,28.62
2019-05-26T06:43:59.621Z,28.92
2019-05-26T06:44:52.074Z,28.73
2019-05-26T06:45:11.995Z,29.48
2019-05-26T06:45:47.651Z,28.67
2019-05-26T06:46:23.540Z,28.67
2019-05-26T06:46:59.691Z,28.25
2019-05-26T06:47:35.349Z,28.50
2019-05-26T06:48:11.227Z,28.92
2019-05-26T06:48:46.418Z,27.82
2019-05-26T06:49:22.433Z,27.32
2019-05-26T06:49:58.538Z,26.60
2019-05-26T06:50:33.673Z,26.85
2019-05-26T06:51:09.318Z,27.17
2019-05-26T06:51:44.990Z,26.60
2019-05-26T06:52:20.287Z,27.82
2019-05-26T06:52:55.922Z,26.45
2019-05-26T06:53:31.569Z,26.10
2019-05-26T06:54:07.158Z,27.07
2019-05-26T06:54:42.766Z,25.52
2019-05-26T06:55:18.435Z,25.62
2019-05-26T06:55:53.459Z,25.65
2019-05-26T06:56:29.363Z,25.60
2019-05-26T06:57:05.151Z,25.17
2019-05-26T06:57:40.557Z,25.50
2019-05-26T06:58:16.239Z,25.02
2019-05-26T06:58:51.898Z,24.82
2019-05-26T06:59:26.947Z,24.70
2019-05-26T07:00:02.602Z,24.35
2019-05-26T07:00:38.304Z,24.87
2019-05-26T07:01:13.378Z,24.12
2019-05-26T07:01:49.021Z,24.90
2019-05-26T07:02:24.622Z,23.05
2019-05-26T07:02:59.943Z,24.20
2019-05-26T07:03:35.584Z,24.10
2019-05-26T07:04:11.652Z,24.67
2019-05-26T07:04:46.687Z,23.25
2019-05-26T07:05:22.392Z,23.98
2019-05-26T07:05:58.014Z,23.62
2019-05-26T07:06:33.068Z,23.52
2019-05-26T07:07:08.759Z,24.32
2019-05-26T07:07:44.374Z,23.38
2019-05-26T07:08:19.434Z,23.07
2019-05-26T07:08:55.075Z,23.12
2019-05-26T07:09:30.710Z,23.05
2019-05-26T07:10:05.982Z,22.13
2019-05-26T07:10:41.634Z,23.22
2019-05-26T07:11:17.256Z,22.73
2019-05-26T07:11:59.700Z,23.15
2019-05-26T07:12:29.656Z,22.37
2019-05-26T07:13:05.286Z,23.20
2019-05-26T07:13:40.407Z,22.50
2019-05-26T07:14:16.027Z,22.58
2019-05-26T07:14:51.663Z,22.30
2019-05-26T07:15:26.719Z,22.35
2019-05-26T07:16:02.486Z,20.75
2019-05-26T07:16:38.975Z,21.65
2019-05-26T07:17:14.154Z,22.32
2019-05-26T07:17:49.775Z,21.93
2019-05-26T07:18:25.414Z,21.85
2019-05-26T07:19:00.515Z,21.50
2019-05-26T07:19:36.167Z,21.90
2019-05-26T07:20:11.870Z,22.07
2019-05-26T07:20:46.946Z,21.85
2019-05-26T07:21:22.595Z,21.30
2019-05-26T07:21:58.488Z,22.15
2019-05-26T07:22:33.515Z,21.60
2019-05-26T07:23:09.568Z,21.30
2019-05-26T07:23:45.963Z,21.82
2019-05-26T07:24:21.099Z,21.77
2019-05-26T07:24:56.760Z,21.82
2019-05-26T07:25:32.485Z,21.45
2019-05-26T07:26:07.791Z,21.77
2019-05-26T07:26:44.653Z,21.93
2019-05-26T07:27:20.278Z,22.70
2019-05-26T07:27:55.374Z,22.62
2019-05-26T07:28:31.191Z,22.27
2019-05-26T07:29:06.824Z,21.48
2019-05-26T07:29:42.323Z,22.00
2019-05-26T07:30:17.990Z,21.57
2019-05-26T07:30:53.868Z,22.15
2019-05-26T07:31:28.944Z,22.15
2019-05-26T07:32:04.816Z,22.27
2019-05-26T07:32:40.463Z,21.80
2019-05-26T07:33:15.636Z,21.37
2019-05-26T07:33:51.310Z,22.25
2019-05-26T07:34:26.936Z,21.40
2019-05-26T07:35:02.035Z,21.02
2019-05-26T07:35:37.671Z,22.00
2019-05-26T07:36:13.307Z,22.13
2019-05-26T07:36:48.349Z,21.42
2019-05-26T07:37:23.999Z,21.48
2019-05-26T07:37:59.614Z,21.55
2019-05-26T07:38:34.691Z,21.42
2019-05-26T07:39:10.715Z,21.40
2019-05-26T07:39:46.685Z,21.90
2019-05-26T07:40:22.137Z,21.40
2019-05-26T07:40:57.787Z,22.07
2019-05-26T07:41:33.707Z,22.75
2019-05-26T07:42:11.011Z,22.20
2019-05-26T07:42:46.461Z,21.52
2019-05-26T07:43:22.267Z,20.75
2019-05-26T07:43:57.904Z,21.75
2019-05-26T07:44:33.770Z,21.87
2019-05-26T07:45:11.104Z,20.32